DEKLF EDHK-EDHK
Flight info
| Callsign | DEKLF |
|---|---|
| Flight time | 0h 20m |
| Altitude | |
| Route | |
| Aircraft | SR22 |
Departure
| Time | 2026-05-06 14:31 |
|---|---|
| Airport | Kiel-Holtenau Airport (EDHK) |
Arrival
| Time | 2026-05-06 14:51 |
|---|---|
| Airport | Kiel-Holtenau Airport (EDHK) |
| Time | Latitude | Longitude | Altitude | Speed | Heading |
|---|---|---|---|---|---|
| 2026-05-06 13:44 | 53.84217 | 10.03265 | 1891 ft | 144 kts | 180° |
| 2026-05-06 13:44 | 53.83220 | 10.03066 | 1888 ft | 143 kts | 179° |
| 2026-05-06 13:45 | 53.82232 | 10.02866 | 1885 ft | 142 kts | 180° |
| 2026-05-06 13:45 | 53.80323 | 10.02402 | 1878 ft | 134 kts | 181° |
| 2026-05-06 13:45 | 53.79415 | 10.02176 | 1901 ft | 129 kts | 181° |
| 2026-05-06 13:46 | 53.78547 | 10.01956 | 1915 ft | 126 kts | 179° |
| 2026-05-06 13:46 | 53.77685 | 10.01730 | 1914 ft | 124 kts | 181° |
| 2026-05-06 13:46 | 53.76843 | 10.01502 | 1910 ft | 122 kts | 181° |
| 2026-05-06 13:46 | 53.76015 | 10.01264 | 1913 ft | 120 kts | 179° |
| 2026-05-06 13:47 | 53.75204 | 10.01034 | 1912 ft | 118 kts | 181° |
| 2026-05-06 13:47 | 53.74402 | 10.00802 | 1912 ft | 115 kts | 179° |
| 2026-05-06 13:47 | 53.73618 | 10.00573 | 1913 ft | 113 kts | 182° |
| 2026-05-06 13:47 | 53.72835 | 10.00346 | 1923 ft | 116 kts | 179° |
| 2026-05-06 13:48 | 53.72022 | 10.00113 | 1923 ft | 121 kts | 182° |
| 2026-05-06 13:48 | 53.71172 | 9.99874 | 1923 ft | 124 kts | 181° |
| 2026-05-06 13:48 | 53.70317 | 9.99640 | 1921 ft | 127 kts | 180° |
| 2026-05-06 13:48 | 53.69437 | 9.99397 | 1924 ft | 129 kts | 180° |
| 2026-05-06 13:49 | 53.68546 | 9.99161 | 1928 ft | 130 kts | 179° |
| 2026-05-06 13:49 | 53.67720 | 9.98552 | 1924 ft | 139 kts | 219° |
| 2026-05-06 13:49 | 53.67099 | 9.97238 | 1931 ft | 140 kts | 233° |
| 2026-05-06 13:49 | 53.66526 | 9.95907 | 1932 ft | 141 kts | 233° |
| 2026-05-06 13:50 | 53.65915 | 9.94602 | 1926 ft | 141 kts | 230° |
| 2026-05-06 13:50 | 53.65306 | 9.93346 | 1909 ft | 141 kts | 230° |
| 2026-05-06 13:50 | 53.64823 | 9.91969 | 1835 ft | 139 kts | 279° |
| 2026-05-06 13:50 | 53.65234 | 9.90813 | 1938 ft | 104 kts | 343° |
| 2026-05-06 13:51 | 53.65859 | 9.90830 | 1953 ft | 88 kts | 37° |
| 2026-05-06 13:51 | 53.66050 | 9.91779 | 1880 ft | 101 kts | 100° |
| 2026-05-06 13:51 | 53.65422 | 9.92457 | 1869 ft | 126 kts | 173° |
| 2026-05-06 13:51 | 53.64653 | 9.91759 | 1879 ft | 133 kts | 232° |
| 2026-05-06 13:52 | 53.64440 | 9.90323 | 1867 ft | 124 kts | 290° |
| 2026-05-06 13:52 | 53.64894 | 9.89320 | 1888 ft | 99 kts | 350° |
| 2026-05-06 13:52 | 53.65458 | 9.89597 | 1856 ft | 88 kts | 60° |
| 2026-05-06 13:52 | 53.65290 | 9.90634 | 1735 ft | 117 kts | 127° |
| 2026-05-06 13:53 | 53.64461 | 9.91062 | 1700 ft | 136 kts | 178° |
| 2026-05-06 13:53 | 53.63607 | 9.90369 | 1683 ft | 142 kts | 229° |
| 2026-05-06 13:53 | 53.63452 | 9.88909 | 1670 ft | 124 kts | 307° |
| 2026-05-06 13:53 | 53.64098 | 9.88379 | 1640 ft | 100 kts | 22° |
| 2026-05-06 13:54 | 53.64525 | 9.89134 | 1719 ft | 90 kts | 72° |
| 2026-05-06 13:54 | 53.64270 | 9.90177 | 1652 ft | 115 kts | 136° |
| 2026-05-06 13:54 | 53.63421 | 9.90138 | 1580 ft | 139 kts | 211° |
| 2026-05-06 13:54 | 53.63151 | 9.88766 | 1558 ft | 125 kts | 307° |
| 2026-05-06 13:55 | 53.63784 | 9.88377 | 1578 ft | 95 kts | 27° |
| 2026-05-06 13:55 | 53.63947 | 9.89276 | 1512 ft | 100 kts | 121° |
| 2026-05-06 13:55 | 53.63218 | 9.89290 | 1385 ft | 125 kts | 218° |
| 2026-05-06 13:55 | 53.63021 | 9.88029 | 1315 ft | 111 kts | 304° |
| 2026-05-06 13:56 | 53.63561 | 9.87631 | 1234 ft | 84 kts | 36° |
| 2026-05-06 13:56 | 53.63634 | 9.88612 | 1336 ft | 110 kts | 119° |
| 2026-05-06 13:56 | 53.62794 | 9.89112 | 1187 ft | 152 kts | 160° |
| 2026-05-06 13:56 | 53.61958 | 9.89541 | 1320 ft | 112 kts | 168° |
| 2026-05-06 13:57 | 53.61306 | 9.88836 | 1092 ft | 114 kts | 226° |
| 2026-05-06 13:57 | 53.60719 | 9.88085 | 969 ft | 100 kts | 176° |
| 2026-05-06 13:57 | 53.60170 | 9.88553 | 839 ft | 84 kts | 133° |
| 2026-05-06 13:57 | 53.59702 | 9.89129 | 772 ft | 80 kts | 129° |
| 2026-05-06 13:58 | 53.59392 | 9.89851 | 734 ft | 70 kts | 100° |
| 2026-05-06 13:58 | 53.59346 | 9.90577 | 722 ft | 61 kts | 85° |
| 2026-05-06 13:58 | 53.59437 | 9.91297 | 713 ft | 65 kts | 62° |
| 2026-05-06 13:58 | 53.59666 | 9.91980 | 708 ft | 69 kts | 52° |
| 2026-05-06 13:59 | 53.60000 | 9.92653 | 619 ft | 79 kts | 50° |
| 2026-05-06 13:59 | 53.60353 | 9.93389 | 516 ft | 79 kts | 47° |
| 2026-05-06 13:59 | 53.60701 | 9.94092 | 444 ft | 78 kts | 51° |
| 2026-05-06 13:59 | 53.61050 | 9.94792 | 362 ft | 79 kts | 49° |
| 2026-05-06 14:00 | 53.61406 | 9.95530 | 227 ft | 82 kts | 50° |
| 2026-05-06 14:00 | 53.61766 | 9.96239 | 112 ft | 77 kts | 49° |
| 2026-05-06 14:00 | 53.62094 | 9.96899 | 36 ft | 67 kts | 51° |
| 2026-05-06 14:00 | 53.62449 | 9.97602 | 94 ft | 98 kts | 50° |
| 2026-05-06 14:01 | 53.62926 | 9.98517 | 383 ft | 112 kts | 48° |
| 2026-05-06 14:01 | 53.63470 | 9.99546 | 707 ft | 118 kts | 59° |
| 2026-05-06 14:01 | 53.63364 | 10.00825 | 1034 ft | 127 kts | 125° |
| 2026-05-06 14:01 | 53.62596 | 10.01698 | 1127 ft | 140 kts | 141° |
| 2026-05-06 14:02 | 53.61758 | 10.02399 | 1128 ft | 125 kts | 163° |
| 2026-05-06 14:02 | 53.61029 | 10.01806 | 1085 ft | 122 kts | 230° |
| 2026-05-06 14:02 | 53.60446 | 10.00782 | 1028 ft | 119 kts | 222° |
| 2026-05-06 14:02 | 53.59881 | 9.99792 | 1048 ft | 115 kts | 226° |
| 2026-05-06 14:03 | 53.59354 | 9.98765 | 1061 ft | 117 kts | 229° |
| 2026-05-06 14:03 | 53.58843 | 9.97694 | 1093 ft | 119 kts | 229° |
| 2026-05-06 14:03 | 53.58282 | 9.96598 | 1047 ft | 127 kts | 226° |
| 2026-05-06 14:03 | 53.57684 | 9.95508 | 1077 ft | 127 kts | 224° |
| 2026-05-06 14:04 | 53.57064 | 9.94449 | 1047 ft | 124 kts | 223° |
| 2026-05-06 14:04 | 53.56481 | 9.93374 | 983 ft | 125 kts | 247° |
| 2026-05-06 14:04 | 53.56650 | 9.92141 | 984 ft | 104 kts | 323° |
| 2026-05-06 14:04 | 53.57116 | 9.91387 | 1012 ft | 85 kts | 330° |
| 2026-05-06 14:05 | 53.57578 | 9.90802 | 990 ft | 82 kts | 335° |
| 2026-05-06 14:05 | 53.58047 | 9.90255 | 1019 ft | 79 kts | 340° |
| 2026-05-06 14:05 | 53.58565 | 9.90282 | 942 ft | 78 kts | 30° |
| 2026-05-06 14:05 | 53.59034 | 9.90810 | 843 ft | 84 kts | 40° |
| 2026-05-06 14:06 | 53.59436 | 9.91531 | 751 ft | 86 kts | 48° |
| 2026-05-06 14:06 | 53.59826 | 9.92302 | 685 ft | 85 kts | 49° |
| 2026-05-06 14:06 | 53.60214 | 9.93082 | 590 ft | 87 kts | 50° |
| 2026-05-06 14:06 | 53.60638 | 9.93916 | 811 ft | 96 kts | 45° |
| 2026-05-06 14:07 | 53.61187 | 9.94839 | 877 ft | 126 kts | 44° |
| 2026-05-06 14:07 | 53.61481 | 9.96105 | 1274 ft | 124 kts | 96° |
| 2026-05-06 14:07 | 53.60959 | 9.97335 | 1400 ft | 140 kts | 131° |
| 2026-05-06 14:07 | 53.60164 | 9.98170 | 1198 ft | 134 kts | 158° |
| 2026-05-06 14:08 | 53.59290 | 9.97990 | 1081 ft | 122 kts | 202° |
| 2026-05-06 14:08 | 53.58599 | 9.97326 | 1083 ft | 108 kts | 210° |
| 2026-05-06 14:08 | 53.58103 | 9.96393 | 1011 ft | 109 kts | 238° |
| 2026-05-06 14:08 | 53.57698 | 9.95286 | 953 ft | 110 kts | 240° |
| 2026-05-06 14:09 | 53.57331 | 9.94180 | 935 ft | 107 kts | 255° |
| 2026-05-06 14:09 | 53.57534 | 9.93162 | 899 ft | 87 kts | 327° |
| 2026-05-06 14:09 | 53.57928 | 9.92577 | 899 ft | 71 kts | 331° |
| 2026-05-06 14:09 | 53.58311 | 9.92052 | 824 ft | 69 kts | 331° |
| 2026-05-06 14:10 | 53.58734 | 9.91754 | 768 ft | 62 kts | 359° |
| 2026-05-06 14:10 | 53.59169 | 9.91648 | 733 ft | 62 kts | 8° |
| 2026-05-06 14:10 | 53.59565 | 9.91901 | 694 ft | 63 kts | 35° |
| 2026-05-06 14:10 | 53.59894 | 9.92431 | 630 ft | 71 kts | 48° |
| 2026-05-06 14:11 | 53.60229 | 9.93099 | 573 ft | 77 kts | 50° |
| 2026-05-06 14:11 | 53.60588 | 9.93829 | 467 ft | 82 kts | 49° |
| 2026-05-06 14:11 | 53.60952 | 9.94579 | 357 ft | 82 kts | 50° |
| 2026-05-06 14:11 | 53.61322 | 9.95332 | 251 ft | 83 kts | 50° |
| 2026-05-06 14:12 | 53.61689 | 9.96083 | 146 ft | 84 kts | 49° |
| 2026-05-06 14:12 | 53.62059 | 9.96837 | 54 ft | 78 kts | 50° |
| 2026-05-06 14:12 | 53.62364 | 9.97458 | 33 ft | 81 kts | 47° |
| 2026-05-06 14:12 | 53.62774 | 9.98305 | 357 ft | 96 kts | 65° |
| 2026-05-06 14:13 | 53.62551 | 9.99270 | 832 ft | 102 kts | 133° |
| 2026-05-06 14:13 | 53.61926 | 9.99935 | 1129 ft | 113 kts | 139° |
| 2026-05-06 14:13 | 53.61202 | 10.00632 | 1162 ft | 131 kts | 143° |
| 2026-05-06 14:13 | 53.60316 | 10.00989 | 1326 ft | 143 kts | 183° |
| 2026-05-06 14:14 | 53.59444 | 10.00108 | 1317 ft | 145 kts | 231° |
| 2026-05-06 14:14 | 53.58897 | 9.98827 | 1304 ft | 123 kts | 236° |
| 2026-05-06 14:14 | 53.58410 | 9.97666 | 1130 ft | 118 kts | 236° |
| 2026-05-06 14:14 | 53.57978 | 9.96534 | 1039 ft | 114 kts | 239° |
| 2026-05-06 14:15 | 53.57606 | 9.95461 | 1026 ft | 103 kts | 253° |
| 2026-05-06 14:15 | 53.57849 | 9.94539 | 901 ft | 85 kts | 337° |
| 2026-05-06 14:15 | 53.58324 | 9.94036 | 860 ft | 72 kts | 339° |
| 2026-05-06 14:15 | 53.58762 | 9.93654 | 828 ft | 70 kts | 345° |
| 2026-05-06 14:16 | 53.59217 | 9.93347 | 825 ft | 72 kts | 349° |
| 2026-05-06 14:16 | 53.59705 | 9.93079 | 807 ft | 73 kts | 358° |
| 2026-05-06 14:16 | 53.60178 | 9.93319 | 715 ft | 75 kts | 39° |
| 2026-05-06 14:16 | 53.60600 | 9.93919 | 579 ft | 82 kts | 46° |
| 2026-05-06 14:17 | 53.60981 | 9.94656 | 438 ft | 85 kts | 50° |
| 2026-05-06 14:17 | 53.61322 | 9.95349 | 262 ft | 70 kts | 50° |
| 2026-05-06 14:17 | 53.61622 | 9.95976 | 144 ft | 68 kts | 49° |
| 2026-05-06 14:17 | 53.61937 | 9.96602 | 69 ft | 70 kts | 48° |
| 2026-05-06 14:18 | 53.62234 | 9.97192 | 33 ft | 64 kts | 49° |
| 2026-05-06 14:18 | 53.62642 | 9.97984 | 179 ft | 103 kts | 47° |
| 2026-05-06 14:18 | 53.63154 | 9.98888 | 516 ft | 113 kts | 31° |
| 2026-05-06 14:18 | 53.63913 | 9.98726 | 908 ft | 119 kts | 342° |
| 2026-05-06 14:19 | 53.64704 | 9.98373 | 1222 ft | 114 kts | 4° |
| 2026-05-06 14:19 | 53.65457 | 9.98459 | 1496 ft | 112 kts | 11° |
| 2026-05-06 14:19 | 53.66282 | 9.98594 | 1607 ft | 122 kts | 9° |
| 2026-05-06 14:19 | 53.67128 | 9.98764 | 1776 ft | 123 kts | 13° |
| 2026-05-06 14:20 | 53.67978 | 9.98948 | 1899 ft | 126 kts | 11° |
| 2026-05-06 14:20 | 53.68868 | 9.99066 | 1912 ft | 128 kts | 11° |
| 2026-05-06 14:20 | 53.69729 | 9.99365 | 1908 ft | 124 kts | 21° |
| 2026-05-06 14:20 | 53.70560 | 9.99744 | 1915 ft | 123 kts | 19° |
| 2026-05-06 14:21 | 53.71378 | 10.00072 | 1957 ft | 120 kts | 18° |
| 2026-05-06 14:21 | 53.72181 | 10.00364 | 1969 ft | 115 kts | 17° |
| 2026-05-06 14:21 | 53.72980 | 10.00638 | 1975 ft | 120 kts | 16° |
| 2026-05-06 14:21 | 53.73807 | 10.00932 | 1974 ft | 123 kts | 17° |
| 2026-05-06 14:22 | 53.74655 | 10.01235 | 1977 ft | 126 kts | 17° |
| 2026-05-06 14:22 | 53.75515 | 10.01544 | 1981 ft | 127 kts | 17° |
| 2026-05-06 14:22 | 53.76398 | 10.01862 | 1983 ft | 129 kts | 16° |
| 2026-05-06 14:22 | 53.77283 | 10.02124 | 2003 ft | 129 kts | 12° |
| 2026-05-06 14:23 | 53.78179 | 10.02327 | 1992 ft | 130 kts | 12° |
| 2026-05-06 14:23 | 53.79078 | 10.02536 | 1980 ft | 131 kts | 13° |
| 2026-05-06 14:23 | 53.79974 | 10.02744 | 1982 ft | 131 kts | 13° |
| 2026-05-06 14:23 | 53.80879 | 10.02950 | 1981 ft | 131 kts | 12° |
| 2026-05-06 14:24 | 53.81774 | 10.03153 | 1977 ft | 130 kts | 12° |
| 2026-05-06 14:24 | 53.82626 | 10.03584 | 1956 ft | 126 kts | 38° |
| 2026-05-06 14:24 | 53.83254 | 10.04582 | 1981 ft | 124 kts | 44° |
| 2026-05-06 14:24 | 53.83869 | 10.05609 | 1985 ft | 124 kts | 44° |
| 2026-05-06 14:25 | 53.84488 | 10.06647 | 1983 ft | 125 kts | 44° |
| 2026-05-06 14:25 | 53.85100 | 10.07671 | 1980 ft | 125 kts | 45° |
| 2026-05-06 14:25 | 53.85725 | 10.08710 | 1980 ft | 126 kts | 44° |
| 2026-05-06 14:25 | 53.86351 | 10.09757 | 1979 ft | 126 kts | 44° |
| 2026-05-06 14:26 | 53.86972 | 10.10790 | 1982 ft | 126 kts | 44° |
| 2026-05-06 14:26 | 53.87594 | 10.11821 | 1980 ft | 126 kts | 44° |
| 2026-05-06 14:26 | 53.88337 | 10.12609 | 1991 ft | 128 kts | 18° |
| 2026-05-06 14:26 | 53.89202 | 10.12918 | 1985 ft | 129 kts | 15° |
| 2026-05-06 14:27 | 53.90089 | 10.13227 | 1984 ft | 129 kts | 15° |
| 2026-05-06 14:27 | 53.90972 | 10.13536 | 1983 ft | 129 kts | 15° |
| 2026-05-06 14:27 | 53.91848 | 10.13842 | 1982 ft | 129 kts | 15° |
| 2026-05-06 14:27 | 53.92734 | 10.14151 | 1976 ft | 129 kts | 15° |
| 2026-05-06 14:28 | 53.93618 | 10.14460 | 1973 ft | 130 kts | 15° |
| 2026-05-06 14:28 | 53.94534 | 10.14442 | 1972 ft | 134 kts | 359° |
| 2026-05-06 14:28 | 53.95458 | 10.14281 | 1967 ft | 134 kts | 359° |
| 2026-05-06 14:28 | 53.96389 | 10.14121 | 1967 ft | 135 kts | 359° |
| 2026-05-06 14:29 | 53.97320 | 10.13961 | 1968 ft | 135 kts | 359° |
| 2026-05-06 14:29 | 53.98251 | 10.13800 | 1984 ft | 123 kts | 0° |
| 2026-05-06 14:29 | 53.98969 | 10.13696 | 2039 ft | 86 kts | 4° |
| 2026-05-06 14:29 | 53.99497 | 10.13611 | 1864 ft | 87 kts | 3° |
| 2026-05-06 14:30 | 54.00153 | 10.13569 | 1621 ft | 90 kts | 5° |
| 2026-05-06 14:30 | 54.00729 | 10.13503 | 1578 ft | 77 kts | 5° |
| 2026-05-06 14:30 | 54.01295 | 10.13472 | 1608 ft | 89 kts | 3° |
| 2026-05-06 14:30 | 54.01873 | 10.13336 | 2131 ft | 79 kts | 1° |
| 2026-05-06 14:31 | 54.02526 | 10.13227 | 2262 ft | 110 kts | 0° |
| 2026-05-06 14:31 | 54.03313 | 10.13099 | 2433 ft | 114 kts | 4° |
| 2026-05-06 14:31 | 54.04076 | 10.13052 | 2564 ft | 106 kts | 4° |
| 2026-05-06 14:31 | 54.04707 | 10.13344 | 2548 ft | 100 kts | 77° |
| 2026-05-06 14:32 | 54.04137 | 10.13821 | 2566 ft | 130 kts | 211° |
| 2026-05-06 14:32 | 54.04093 | 10.12583 | 2540 ft | 112 kts | 337° |
| 2026-05-06 14:32 | 54.04791 | 10.12158 | 2426 ft | 131 kts | 307° |
| 2026-05-06 14:32 | 54.04417 | 10.10922 | 2434 ft | 133 kts | 176° |
| 2026-05-06 14:33 | 54.04077 | 10.11802 | 2444 ft | 99 kts | 47° |
| 2026-05-06 14:33 | 54.04746 | 10.11900 | 2517 ft | 103 kts | 356° |
| 2026-05-06 14:33 | 54.05391 | 10.11673 | 2520 ft | 83 kts | 356° |
| 2026-05-06 14:33 | 54.05894 | 10.11455 | 2405 ft | 72 kts | 358° |
| 2026-05-06 14:34 | 54.06611 | 10.11185 | 2204 ft | 110 kts | 354° |
| 2026-05-06 14:34 | 54.07282 | 10.11037 | 2118 ft | 100 kts | 2° |
| 2026-05-06 14:34 | 54.08060 | 10.10946 | 2168 ft | 115 kts | 1° |
| 2026-05-06 14:34 | 54.08868 | 10.10827 | 2203 ft | 117 kts | 359° |
| 2026-05-06 14:35 | 54.09662 | 10.10617 | 2290 ft | 114 kts | 360° |
| 2026-05-06 14:35 | 54.10398 | 10.10777 | 2146 ft | 98 kts | 36° |
| 2026-05-06 14:35 | 54.10904 | 10.11508 | 1973 ft | 83 kts | 45° |
| 2026-05-06 14:35 | 54.11263 | 10.12108 | 1836 ft | 69 kts | 45° |
| 2026-05-06 14:36 | 54.11599 | 10.12707 | 1588 ft | 67 kts | 60° |
| 2026-05-06 14:36 | 54.11983 | 10.13063 | 1291 ft | 71 kts | 29° |
| 2026-05-06 14:36 | 54.12178 | 10.13790 | 943 ft | 78 kts | 95° |
| 2026-05-06 14:36 | 54.12080 | 10.14640 | 716 ft | 69 kts | 85° |
| 2026-05-06 14:37 | 54.12119 | 10.15418 | 465 ft | 68 kts | 70° |
| 2026-05-06 14:37 | 54.12271 | 10.16184 | 263 ft | 76 kts | 58° |
| 2026-05-06 14:37 | 54.12597 | 10.16981 | 612 ft | 86 kts | 37° |
| 2026-05-06 14:37 | 54.13148 | 10.16836 | 1051 ft | 97 kts | 326° |
| 2026-05-06 14:38 | 54.13653 | 10.16082 | 1450 ft | 104 kts | 323° |
| 2026-05-06 14:38 | 54.14152 | 10.15160 | 1721 ft | 106 kts | 315° |
| 2026-05-06 14:38 | 54.14747 | 10.14485 | 1820 ft | 103 kts | 353° |
| 2026-05-06 14:38 | 54.15429 | 10.14470 | 1975 ft | 99 kts | 18° |
| 2026-05-06 14:39 | 54.16111 | 10.14692 | 2079 ft | 107 kts | 5° |
| 2026-05-06 14:39 | 54.16880 | 10.14615 | 2155 ft | 115 kts | 359° |
| 2026-05-06 14:39 | 54.17697 | 10.14447 | 2211 ft | 122 kts | 355° |
| 2026-05-06 14:39 | 54.18530 | 10.14221 | 2292 ft | 121 kts | 357° |
| 2026-05-06 14:40 | 54.19343 | 10.13994 | 2332 ft | 116 kts | 353° |
| 2026-05-06 14:40 | 54.20120 | 10.13612 | 2358 ft | 113 kts | 354° |
| 2026-05-06 14:40 | 54.20870 | 10.13520 | 2356 ft | 109 kts | 5° |
| 2026-05-06 14:40 | 54.21640 | 10.13536 | 2316 ft | 111 kts | 7° |
| 2026-05-06 14:41 | 54.22413 | 10.13548 | 2290 ft | 111 kts | 5° |
| 2026-05-06 14:41 | 54.23199 | 10.13488 | 2210 ft | 114 kts | 2° |
| 2026-05-06 14:41 | 54.23985 | 10.13426 | 2169 ft | 112 kts | 5° |
| 2026-05-06 14:41 | 54.24765 | 10.13459 | 2105 ft | 112 kts | 9° |
| 2026-05-06 14:42 | 54.25546 | 10.13580 | 2066 ft | 110 kts | 11° |
| 2026-05-06 14:42 | 54.26310 | 10.13670 | 2011 ft | 112 kts | 7° |
| 2026-05-06 14:42 | 54.27087 | 10.13665 | 1947 ft | 112 kts | 6° |
| 2026-05-06 14:42 | 54.27861 | 10.13738 | 1912 ft | 110 kts | 8° |
| 2026-05-06 14:43 | 54.28635 | 10.13733 | 1852 ft | 112 kts | 5° |
| 2026-05-06 14:43 | 54.29407 | 10.13787 | 1756 ft | 104 kts | 10° |
| 2026-05-06 14:43 | 54.30058 | 10.13899 | 1633 ft | 85 kts | 13° |
| 2026-05-06 14:43 | 54.30645 | 10.13887 | 1376 ft | 91 kts | 339° |
| 2026-05-06 14:44 | 54.31017 | 10.12975 | 1118 ft | 104 kts | 293° |
| 2026-05-06 14:44 | 54.31260 | 10.11802 | 981 ft | 103 kts | 293° |
| 2026-05-06 14:44 | 54.31446 | 10.10630 | 1056 ft | 103 kts | 288° |
| 2026-05-06 14:45 | 54.31462 | 10.08004 | 1108 ft | 113 kts | 271° |
| 2026-05-06 14:45 | 54.31421 | 10.06632 | 1071 ft | 117 kts | 267° |
| 2026-05-06 14:45 | 54.31331 | 10.05274 | 1057 ft | 117 kts | 274° |
| 2026-05-06 14:45 | 54.31704 | 10.04240 | 1057 ft | 96 kts | 350° |
| 2026-05-06 14:46 | 54.32332 | 10.04147 | 1067 ft | 91 kts | 358° |
| 2026-05-06 14:46 | 54.32961 | 10.03990 | 1091 ft | 88 kts | 356° |
| 2026-05-06 14:46 | 54.33552 | 10.03820 | 1118 ft | 84 kts | 355° |
| 2026-05-06 14:46 | 54.34112 | 10.03635 | 1175 ft | 75 kts | 357° |
| 2026-05-06 14:47 | 54.34649 | 10.03411 | 1250 ft | 84 kts | 349° |
| 2026-05-06 14:47 | 54.35232 | 10.03208 | 1225 ft | 85 kts | 355° |
| 2026-05-06 14:47 | 54.35803 | 10.03084 | 1212 ft | 79 kts | 27° |
| 2026-05-06 14:47 | 54.36149 | 10.03748 | 1240 ft | 74 kts | 50° |
| 2026-05-06 14:48 | 54.36504 | 10.04391 | 1249 ft | 74 kts | 45° |
| 2026-05-06 14:48 | 54.36828 | 10.05083 | 1246 ft | 77 kts | 55° |
| 2026-05-06 14:48 | 54.37114 | 10.05909 | 1210 ft | 80 kts | 59° |
| 2026-05-06 14:48 | 54.37296 | 10.06797 | 1204 ft | 80 kts | 73° |
| 2026-05-06 14:49 | 54.37393 | 10.07748 | 1150 ft | 80 kts | 72° |
| 2026-05-06 14:49 | 54.37481 | 10.08672 | 1037 ft | 79 kts | 79° |
| 2026-05-06 14:49 | 54.37565 | 10.09624 | 894 ft | 82 kts | 73° |
| 2026-05-06 14:49 | 54.37663 | 10.10603 | 734 ft | 84 kts | 79° |
| 2026-05-06 14:50 | 54.37726 | 10.11562 | 565 ft | 74 kts | 77° |
| 2026-05-06 14:50 | 54.37790 | 10.12384 | 390 ft | 67 kts | 79° |
| 2026-05-06 14:50 | 54.37850 | 10.13176 | 170 ft | 68 kts | 77° |
| 2026-05-06 14:50 | 54.37911 | 10.13876 | 96 ft | 50 kts | 79° |
| 2026-05-06 14:51 | 54.37947 | 10.14363 | 97 ft | 33 kts | 81° |
| 2026-05-06 14:51 | 54.37975 | 10.14684 | 95 ft | 18 kts | 91° |
| 2026-05-06 14:51 | 54.37981 | 10.14850 | 93 ft | 9 kts | 83° |
| 2026-05-06 14:51 | 54.37981 | 10.14939 | 92 ft | 6 kts | 78° |
| 2026-05-06 14:52 | 54.37991 | 10.15022 | 91 ft | 9 kts | 74° |
| 2026-05-06 14:52 | 54.38005 | 10.15173 | 88 ft | 15 kts | 83° |
| 2026-05-06 14:52 | 54.38022 | 10.15325 | 85 ft | 7 kts | 39° |
| 2026-05-06 14:52 | 54.38068 | 10.15318 | 85 ft | 9 kts | 332° |
| 2026-05-06 14:53 | 54.38141 | 10.15264 | 87 ft | 12 kts | 328° |
| 2026-05-06 14:53 | 54.38203 | 10.15161 | 89 ft | 12 kts | 313° |
| 2026-05-06 14:53 | 54.38232 | 10.15031 | 91 ft | 13 kts | 273° |
| 2026-05-06 14:53 | 54.38240 | 10.14858 | 94 ft | 15 kts | 279° |
| 2026-05-06 14:54 | 54.38258 | 10.14665 | 96 ft | 14 kts | 279° |
| 2026-05-06 14:54 | 54.38276 | 10.14571 | 97 ft | 4 kts | 314° |
| 2026-05-06 14:54 | 54.38293 | 10.14523 | 97 ft | 4 kts | 337° |
| 2026-05-06 14:54 | 54.38310 | 10.14530 | 97 ft | 1 kts | 81° |
| 2026-05-06 14:55 | 54.38316 | 10.14540 | 97 ft | 0 kts | 262° |